createdAt,value
2022-11-22T00:08:42.433Z,21.20361328125
2022-11-22T00:18:42.322Z,21.10595703125
2022-11-22T00:28:42.371Z,19.20166015625
2022-11-22T00:38:42.186Z,19.6044921875
2022-11-22T00:48:42.105Z,19.7998046875
2022-11-22T00:58:42.068Z,19.7998046875
2022-11-22T01:07:33.684Z,21.10595703125
2022-11-22T01:17:33.167Z,21.39892578125
2022-11-22T01:27:33.117Z,20.60546875
2022-11-22T01:37:33.042Z,20.39794921875
2022-11-22T01:47:32.979Z,20.49560546875
2022-11-22T01:57:32.907Z,20.80078125
2022-11-22T02:07:32.940Z,20.703125
2022-11-22T02:17:32.782Z,21.49658203125
2022-11-22T02:27:32.717Z,21.20361328125
2022-11-22T02:37:32.728Z,20.703125
2022-11-22T02:47:32.572Z,20.20263671875
2022-11-22T02:57:32.489Z,20.39794921875
2022-11-22T03:07:32.515Z,20.10498046875
2022-11-22T03:17:32.360Z,19.29931640625
2022-11-22T03:27:32.285Z,19.10400390625
2022-11-22T03:37:32.212Z,18.994140625
2022-11-22T03:47:32.154Z,18.798828125
2022-11-22T03:57:32.059Z,18.896484375
2022-11-22T04:07:32.040Z,18.701171875
2022-11-22T04:17:31.923Z,18.505859375
2022-11-22T04:27:31.861Z,18.798828125
2022-11-22T04:37:31.774Z,18.39599609375
2022-11-22T04:47:31.698Z,18.10302734375
2022-11-22T04:57:31.628Z,18.29833984375
2022-11-22T05:07:31.621Z,18.39599609375
2022-11-22T05:17:31.505Z,18.29833984375
2022-11-22T05:27:31.424Z,18.10302734375
2022-11-22T05:37:31.340Z,17.8955078125
2022-11-22T05:47:31.289Z,17.7978515625
2022-11-22T05:57:31.208Z,17.7001953125
2022-11-22T06:07:31.244Z,17.5048828125
2022-11-22T06:17:31.074Z,17.6025390625
2022-11-22T06:27:31.003Z,17.8955078125
2022-11-22T06:37:30.939Z,17.7001953125
2022-11-22T06:47:30.865Z,17.10205078125
2022-11-22T06:57:30.814Z,16.19873046875
2022-11-22T07:07:30.769Z,15.6005859375
2022-11-22T07:27:30.568Z,15.5029296875
2022-11-22T07:37:30.494Z,15.5029296875
2022-11-22T07:47:30.418Z,15.6005859375
2022-11-22T07:57:30.377Z,15.4052734375
2022-11-22T08:07:30.333Z,15.6005859375
2022-11-22T08:17:30.203Z,15.29541015625
2022-11-22T08:27:30.145Z,15.00244140625
2022-11-22T08:37:30.063Z,14.599609375
2022-11-22T08:47:30.006Z,14.29443359375
2022-11-22T08:57:29.933Z,14.09912109375
2022-11-22T09:17:29.795Z,13.90380859375
2022-11-22T09:27:29.707Z,14.29443359375
2022-11-22T09:37:29.647Z,13.90380859375
2022-11-22T09:47:29.594Z,13.4033203125
2022-11-22T09:57:29.513Z,13.3056640625
2022-11-22T10:07:29.542Z,12.90283203125
2022-11-22T10:17:33.278Z,12.80517578125
2022-11-22T10:27:29.276Z,12.80517578125
2022-11-22T10:37:29.218Z,13.09814453125
2022-11-22T10:47:34.104Z,13.3056640625
2022-11-22T10:57:29.201Z,13.3056640625
2022-11-22T11:07:29.063Z,13.5009765625
2022-11-22T11:17:28.932Z,13.4033203125
2022-11-22T11:27:28.882Z,13.4033203125
2022-11-22T11:37:28.803Z,13.3056640625
2022-11-22T11:47:28.732Z,13.3056640625
2022-11-22T11:57:28.671Z,13.3056640625
2022-11-22T12:07:28.698Z,13.5986328125
2022-11-22T12:17:28.515Z,13.6962890625
2022-11-22T12:27:28.461Z,13.7939453125
2022-11-22T12:37:28.385Z,14.19677734375
2022-11-22T12:47:28.310Z,14.19677734375
2022-11-22T12:57:28.256Z,14.19677734375
2022-11-22T13:07:28.279Z,14.09912109375
2022-11-22T13:17:28.108Z,14.19677734375
2022-11-22T13:27:28.023Z,14.19677734375
2022-11-22T13:37:27.957Z,14.29443359375
2022-11-22T13:47:27.893Z,14.29443359375
2022-11-22T13:57:27.830Z,14.29443359375
2022-11-22T14:07:27.840Z,14.29443359375
2022-11-22T14:17:27.676Z,14.404296875
2022-11-22T14:27:27.872Z,14.501953125
2022-11-22T14:37:27.550Z,14.404296875
2022-11-22T14:47:27.473Z,14.29443359375
2022-11-22T14:57:27.428Z,14.501953125
2022-11-22T15:09:11.239Z,14.29443359375
2022-11-22T15:57:27.444Z,13.09814453125
2022-11-22T16:07:26.955Z,13.09814453125
2022-11-22T16:17:26.853Z,13.09814453125
2022-11-22T16:27:26.791Z,13.09814453125
2022-11-22T16:37:26.809Z,13.09814453125
2022-11-22T16:47:26.650Z,13.09814453125
2022-11-22T16:57:26.567Z,13.00048828125
2022-11-22T17:07:26.594Z,13.00048828125
2022-11-22T17:17:26.444Z,13.00048828125
2022-11-22T17:27:26.371Z,12.90283203125
2022-11-22T17:37:26.406Z,12.90283203125
2022-11-22T17:47:26.230Z,13.00048828125
2022-11-22T17:57:26.159Z,13.00048828125
2022-11-22T18:07:26.133Z,13.19580078125
2022-11-22T18:17:26.022Z,13.3056640625
2022-11-22T18:27:25.940Z,13.19580078125
2022-11-22T18:37:25.893Z,13.5009765625
2022-11-22T18:47:25.824Z,13.6962890625
2022-11-22T18:57:25.835Z,14.00146484375
2022-11-22T19:07:25.854Z,14.19677734375
2022-11-22T19:17:25.605Z,14.19677734375
2022-11-22T19:27:25.530Z,14.794921875
2022-11-22T19:37:25.512Z,15.00244140625
2022-11-22T19:47:25.388Z,14.501953125
2022-11-22T19:57:25.336Z,14.599609375
2022-11-22T20:07:25.406Z,15.00244140625
2022-11-22T20:17:25.180Z,15.10009765625
2022-11-22T20:27:25.123Z,15.29541015625
2022-11-22T20:37:25.029Z,15.7958984375
2022-11-22T20:47:24.970Z,15.7958984375
2022-11-22T20:57:24.884Z,15.90576171875
2022-11-22T21:07:24.834Z,16.19873046875
2022-11-22T21:17:41.965Z,16.69921875
2022-11-22T21:27:24.661Z,17.6025390625
2022-11-22T21:37:24.587Z,18.29833984375
2022-11-22T21:47:24.517Z,17.6025390625
2022-11-22T21:57:24.443Z,17.7001953125
2022-11-22T22:07:50.936Z,18.20068359375
2022-11-22T22:17:24.310Z,18.896484375
2022-11-22T22:27:24.259Z,19.9951171875
2022-11-22T22:37:24.186Z,20.60546875
2022-11-22T22:47:24.098Z,20.80078125
2022-11-22T22:57:24.021Z,21.30126953125
2022-11-22T23:07:24.009Z,22.20458984375
2022-11-22T23:17:24.070Z,21.8994140625
2022-11-22T23:27:23.825Z,22.30224609375
2022-11-22T23:37:23.753Z,22.705078125
2022-11-22T23:47:23.678Z,22.900390625
2022-11-22T23:57:23.610Z,22.20458984375
